KSOP

Moore County Airport

Pinehurst/Southern Pines, North Carolina, USA
METAR KSOP 220356Z AUTO 00000KT 10SM CLR M08/M12 A3056 RMK AO2 SLP369 T10781117 400061083 FZRANO
Observed Flight Rules
Jan-22 @ 03:56 UTC (17 minutes ago) Visual Flight Rules
Visibility Clouds
10 miles
  • Clear skies
Temperatures Readings
Current -8°C / 18°F
Dewpoint -12°C / 10°F
Humidity 73%
Altimeter 30.56" Hg
Pressure 1036.9 hPa
Elevation 141
METAR KSOP 220356Z AUTO 00000KT 10SM CLR M08/M12 A3056 RMK AO2 SLP369 T10781117 400061083 FZRANO
Observed Flight Rules
Jan-22 @ 03:56 UTC
(17 minutes ago)
VFR
Clouds
  • Clear skies
Temperature Dewpoint
-8°C / 18°F -12°C / 10°F
Humidity Altimeter Pressure
73% 30.56" Hg 1036.9 hPa